• Join FlightAware (Why Join?)
  • Login
  • US Flag 
12:06AM EST


 

Airport Tracker/Info


-or-


 

Live Flight TrackerFlight Track Log ✈ FIV705 ✈ 27-Jun-2013 ✈ KAAO - KSSI

Flight Track Log - Related Links

Times and Time Zones

All times are in EDT time to prevent confusion due to time zone crossing. See the FIV705 flight status page for this flight to view local times or setup timezone preferences in your user account.

Time Position Orientation Groundspeed Altitude Reporting Facility
EDT Latitude Longitude Course Direction KTS MPH feet Rate Location/Type
11:47AM 37.6961 -97.2022 152° Southeast 187 215 2,700  Level Kansas City Center
11:49AM 37.6389 -97.1636 152° Southeast 219 252 3,000 1,200 Climbing Kansas City Center
11:50AM 37.5889 -97.0978 134° Southeast 256 295 5,400 2,460 Climbing Kansas City Center
11:51AM 37.5503 -97.0025 117° Southeast 278 320 8,100 2,340 Climbing Kansas City Center
11:52AM 37.5106 -96.9114 119° Southeast 293 337 10,400 1,680 Climbing Kansas City Center
11:53AM 37.4642 -96.8058 119° Southeast 341 392 11,600 1,500 Climbing Kansas City Center
11:54AM 37.4139 -96.6900 119° Southeast 370 426 13,600 2,040 Climbing Kansas City Center
11:55AM 37.3625 -96.5708 118° Southeast 383 441 15,900 2,160 Climbing Kansas City Center
11:56AM 37.2969 -96.4292 120° Southeast 391 450 18,100 1,680 Climbing Kansas City Center
11:57AM 37.2422 -96.3039 119° Southeast 398 458 19,400 1,200 Climbing Kansas City Center
11:58AM 37.1831 -96.1728 119° Southeast 414 476 20,600 1,200 Climbing Kansas City Center
11:59AM 37.1225 -96.0358 119° Southeast 431 496 21,900 1,200 Climbing Kansas City Center
12:00PM 37.0608 -95.8969 119° Southeast 444 511 23,200 1,320 Climbing Kansas City Center
12:01PM 36.9994 -95.7572 119° Southeast 451 519 24,700 1,200 Climbing Kansas City Center
12:02PM 36.9367 -95.6169 119° Southeast 456 525 25,800 1,200 Climbing Kansas City Center
12:03PM 36.8594 -95.4458 119° Southeast 462 532 27,300 1,200 Climbing Kansas City Center
12:04PM 36.7944 -95.3011 119° Southeast 470 541 28,300 960 Climbing Kansas City Center
12:05PM 36.7275 -95.1542 120° Southeast 477 549 29,300 960 Climbing Kansas City Center
12:06PM 36.6592 -95.0061 120° Southeast 482 555 30,300 1,200 Climbing Kansas City Center
12:07PM 36.5906 -94.8567 120° Southeast 487 560 31,900 1,320 Climbing Kansas City Center
12:08PM 36.5211 -94.7106 121° Southeast 489 563 33,100 960 Climbing Kansas City Center
12:09PM 36.4511 -94.5622 120° Southeast 493 567 33,900 420 Climbing Kansas City Center
12:10PM 36.3794 -94.4083 120° Southeast 510 587 34,000 60 Climbing Kansas City Center
12:11PM 36.3375 -94.3167 120° Southeast 509 586 34,000  Level Memphis Center
12:12PM 36.2656 -94.1561 119° Southeast 527 606 34,000 1,200 Level Memphis Center
12:13PM 36.2139 -93.9994 112° Southeast 516 594 36,400 2,100 Climbing Memphis Center
12:14PM 36.1683 -93.8433 110° East 498 573 38,300 1,920 Climbing Memphis Center
12:15PM 36.1244 -93.6897 109° East 479 551 40,300 1,320 Climbing Memphis Center
12:16PM 36.0806 -93.5389 110° East 471 542 41,000 300 Climbing Memphis Center
12:17PM 36.0364 -93.3833 109° East 476 548 41,000  Level Memphis Center
12:18PM 35.9925 -93.2175 108° East 482 555 41,000  Level Memphis Center
12:19PM 35.9461 -93.0544 109° East 496 571 41,000  Level Memphis Center
12:20PM 35.8994 -92.8939 110° East 501 577 41,000  Level Memphis Center
12:21PM 35.8506 -92.7286 110° East 501 577 41,000  Level Memphis Center
12:22PM 35.7994 -92.5481 109° East 501 577 41,000  Level Memphis Center
12:23PM 35.7503 -92.3803 110° East 507 583 41,000  Level Memphis Center
12:24PM 35.7028 -92.2181 110° East 507 583 41,000  Level Memphis Center
12:25PM 35.6531 -92.0536 110° East 507 583 41,000  Level Memphis Center
12:26PM 35.6050 -91.8867 109° East 507 583 41,000  Level Memphis Center
12:27PM 35.5547 -91.7197 110° East 512 589 41,000  Level Memphis Center
12:28PM 35.5044 -91.5558 111° Southeast 512 589 41,000  Level Memphis Center
12:29PM 35.4517 -91.3944 112° Southeast 511 588 41,000  Level Memphis Center
12:30PM 35.4050 -91.2258 109° East 511 588 41,000  Level Memphis Center
12:31PM 35.3539 -91.0622 111° Southeast 511 588 41,000  Level Memphis Center
12:32PM 35.3025 -90.8964 111° Southeast 511 588 41,000  Level Memphis Center
12:33PM 35.2508 -90.7333 111° Southeast 511 588 41,000  Level Memphis Center
12:34PM 35.2011 -90.5706 110° East 516 594 41,000  Level Memphis Center
12:35PM 35.1492 -90.4028 111° Southeast 511 588 41,000  Level Memphis Center
12:36PM 35.0969 -90.2403 111° Southeast 516 594 41,000  Level Memphis Center
12:37PM 35.0508 -90.0933 111° Southeast 516 594 41,000  Level Memphis Center
12:38PM 34.9983 -89.9339 112° Southeast 516 594 41,000  Level Memphis Center
12:39PM 34.9225 -89.7694 119° Southeast 521 600 41,000  Level Memphis Center
12:40PM 34.8569 -89.6131 117° Southeast 528 608 41,000  Level Memphis Center
12:41PM 34.7847 -89.4342 116° Southeast 538 619 41,000  Level Memphis Center
12:42PM 34.7167 -89.2758 118° Southeast 520 598 41,000  Level Memphis Center
12:43PM 34.6506 -89.1200 117° Southeast 514 592 41,000  Level Memphis Center
12:44PM 34.5842 -88.9622 117° Southeast 514 592 41,000  Level Memphis Center
12:45PM 34.5219 -88.8219 118° Southeast 514 592 41,000  Level Memphis Center
12:46PM 34.4575 -88.6769 118° Southeast 504 580 41,000  Level Memphis Center
12:47PM 34.3908 -88.5247 118° Southeast 504 580 41,000  Level Memphis Center
12:48PM 34.3236 -88.3703 118° Southeast 509 586 41,000  Level Memphis Center
12:50PM 34.1742 -88.0308 118° Southeast 518 596 41,000  Level Atlanta Center
12:51PM 34.1117 -87.8925 119° Southeast 525 604 41,000  Level Atlanta Center
12:52PM 34.0433 -87.7417 119° Southeast 525 604 41,000  Level Atlanta Center
12:53PM 33.9769 -87.5883 118° Southeast 525 604 41,000  Level Atlanta Center
12:54PM 33.9103 -87.4378 118° Southeast 520 598 41,000  Level Atlanta Center
12:55PM 33.8453 -87.2903 118° Southeast 515 593 41,000  Level Atlanta Center
12:56PM 33.7781 -87.1428 119° Southeast 510 587 41,000  Level Atlanta Center
12:57PM 33.7150 -86.9981 118° Southeast 505 581 41,000  Level Atlanta Center
12:58PM 33.6517 -86.8514 117° Southeast 505 581 41,000  Level Atlanta Center
12:59PM 33.5964 -86.6997 114° Southeast 500 575 41,000  Level Atlanta Center
01:00PM 33.5411 -86.5486 114° Southeast 494 568 41,000  Level Atlanta Center
01:01PM 33.4861 -86.3825 112° Southeast 488 562 41,000  Level Atlanta Center
01:02PM 33.4325 -86.2342 113° Southeast 481 554 41,000 -60 Level Atlanta Center
01:03PM 33.3767 -86.0836 114° Southeast 488 562 40,900  Descending Atlanta Center
01:04PM 33.3206 -85.9306 114° Southeast 488 562 41,000  Climbing Atlanta Center
01:05PM 33.2644 -85.7778 114° Southeast 488 562 41,000  Level Atlanta Center
01:06PM 33.2100 -85.6328 114° Southeast 481 554 41,000  Level Atlanta Center
01:07PM 33.1514 -85.4803 115° Southeast 492 566 41,000  Level Atlanta Center
01:08PM 33.1006 -85.3506 115° Southeast 486 559 41,000  Level Atlanta Center
01:09PM 33.0356 -85.1811 115° Southeast 498 573 41,000  Level Atlanta Center
01:10PM 32.9656 -85.0589 124° Southeast 498 573 41,000  Level Atlanta Center
01:11PM 32.8894 -84.9194 123° Southeast 506 582 41,000  Level Atlanta Center
01:12PM 32.8131 -84.7803 123° Southeast 506 582 41,000  Level Atlanta Center
01:13PM 32.7283 -84.6239 123° Southeast 506 582 41,000  Level Atlanta Center
01:14PM 32.6539 -84.4853 123° Southeast 506 582 41,000  Level Atlanta Center
01:15PM 32.5769 -84.3469 123° Southeast 506 582 41,000 -360 Level Atlanta Center
01:16PM 32.5019 -84.2089 123° Southeast 506 582 40,300 -1,320 Descending Atlanta Center
01:17PM 32.4269 -84.0733 123° Southeast 506 582 38,400 -1,620 Descending Atlanta Center
01:18PM 32.3478 -83.9306 123° Southeast 506 582 37,100 -1,680 Descending Atlanta Center
01:19PM 32.2681 -83.7883 124° Southeast 506 582 35,100 -1,500 Descending Atlanta Center
01:20PM 32.1864 -83.6461 124° Southeast 506 582 34,200 -1,440 Descending Atlanta Center
01:21PM 32.1128 -83.5167 124° Southeast 517 595 32,300 -2,160 Descending Atlanta Center
01:22PM 32.0286 -83.3675 124° Southeast 529 609 29,900 -2,580 Descending Atlanta Center
01:23PM 31.9136 -83.1619 123° Southeast 547 629 26,500 -2,520 Descending Jacksonville Center
01:24PM 31.8344 -83.0247 124° Southeast 523 602 24,200 -2,340 Descending Jacksonville Center
01:25PM 31.7553 -82.8903 125° Southeast 512 589 21,900 -1,620 Descending Jacksonville Center
01:26PM 31.6800 -82.7608 124° Southeast 500 575 21,000 -600 Descending Jacksonville Center
01:27PM 31.6089 -82.6364 124° Southeast 480 552 20,800 -840 Descending Jacksonville Center
01:28PM 31.5375 -82.5100 124° Southeast 468 539 19,400 -1,500 Descending Jacksonville Center
01:29PM 31.4744 -82.3761 119° Southeast 463 533 17,900 -1,440 Descending Jacksonville Center
01:30PM 31.4133 -82.2450 119° Southeast 458 527 16,500 -1,500 Descending Jacksonville Center
01:31PM 31.3542 -82.1142 118° Southeast 452 520 15,000 -1,560 Descending Jacksonville Center
01:32PM 31.2969 -81.9858 118° Southeast 452 520 13,400 -1,800 Descending Jacksonville Center
01:33PM 31.2417 -81.8647 118° Southeast 426 490 11,400 -1,800 Descending Jacksonville Center
01:34PM 31.1947 -81.7633 118° Southeast 368 423 9,900 -1,560 Descending Jacksonville Center
01:35PM 31.1647 -81.6689 110° East 316 364 8,300 -1,860 Descending Jacksonville Center
01:36PM 31.1617 -81.5742 92° East 294 338 6,300 -2,100 Descending Jacksonville Center
01:37PM 31.1589 -81.4992 92° East 272 313 4,100 -2,340 Descending Jacksonville Center
01:38PM 31.1536 -81.4189 94° East 250 288 1,700 -1,260 Descending Jacksonville Center
01:39PM 31.1383 -81.3536 105° East 205 236 1,600 -240 Descending Jacksonville Center
01:40PM 31.1756 -81.3289 30° Northeast 142 163 1,300 -420 Descending Jacksonville Center
01:41PM 31.1822 -81.3700 281° West 94 108 800 -360 Descending Jacksonville Center
01:42PM 31.1889 -81.3917 290° West 83 96 600 2,100 Descending Jacksonville Center
01:43PM 31.1933 -81.4158 282° West 83 96 5,000 4,380 Climbing Jacksonville Center